Spring Heights, New Jersey
Current Conditions -  °F | °C
As of 10:15 AM on Thursday 23 Oct 2014 (Local Time) from KBLM Reporting Station
Overcast Overcast  
Wind Chill: 52°   Ceiling: 1900
Heat Index: 52°   Visibility: 10mi
Dew Point: 45°   Wind: 14mph
Humidity: 76%   Direction: 320°NW
Pressure: 29.7"   Gusts: 22mph
Location:  40.1528°N, 74.0364°W
Report Text: KBLM 231415Z AUTO 32012G19KT 10SM SCT013 OVC019 11/07 A2970 RMK AO1 P0001
Loading
Personal Weather Stations






























Interactive Weather Map
Tropical Storm Tracking
New forecast layout! Learn more

10-Day Weather Forecast

Advertisements
Track Severe Weather on mobile